sensor_id;sensor_type;location;lat;lon;timestamp;pressure;altitude;pressure_sealevel;temperature;humidity
61628;BME280;55193;52.102;5.242;2022-09-02T00:02:50;101712.0;;;18.93;48.71
61628;BME280;55193;52.102;5.242;2022-09-02T00:04:27;101711.0;;;18.86;48.9
61628;BME280;55193;52.102;5.242;2022-09-02T00:06:03;101707.0;;;18.79;48.8
61628;BME280;55193;52.102;5.242;2022-09-02T00:07:40;101712.0;;;18.84;49.14
61628;BME280;55193;52.102;5.242;2022-09-02T00:10:57;101707.0;;;18.8;48.53
61628;BME280;55193;52.102;5.242;2022-09-02T00:12:34;101707.0;;;18.84;48.98
61628;BME280;55193;52.102;5.242;2022-09-02T00:14:14;101707.0;;;18.81;49.3
61628;BME280;55193;52.102;5.242;2022-09-02T00:17:30;101709.0;;;18.8;49.08
61628;BME280;55193;52.102;5.242;2022-09-02T00:19:06;101708.0;;;18.73;49.7
61628;BME280;55193;52.102;5.242;2022-09-02T00:20:45;101706.0;;;18.71;49.31
61628;BME280;55193;52.102;5.242;2022-09-02T00:22:23;101702.0;;;18.62;49.55
61628;BME280;55193;52.102;5.242;2022-09-02T00:25:38;101697.0;;;18.63;49.33
61628;BME280;55193;52.102;5.242;2022-09-02T00:27:15;101698.0;;;18.61;50.02
61628;BME280;55193;52.102;5.242;2022-09-02T00:28:51;101702.0;;;18.68;50.01
61628;BME280;55193;52.102;5.242;2022-09-02T00:32:04;101699.0;;;18.61;49.52
61628;BME280;55193;52.102;5.242;2022-09-02T00:33:41;101699.0;;;18.61;49.81
61628;BME280;55193;52.102;5.242;2022-09-02T00:35:18;101700.0;;;18.66;49.49
61628;BME280;55193;52.102;5.242;2022-09-02T00:38:33;101696.0;;;18.5;50.06
61628;BME280;55193;52.102;5.242;2022-09-02T00:40:11;101695.0;;;18.55;50.04
61628;BME280;55193;52.102;5.242;2022-09-02T00:41:49;101696.0;;;18.54;49.68
61628;BME280;55193;52.102;5.242;2022-09-02T00:43:40;101695.0;;;18.5;50.25
61628;BME280;55193;52.102;5.242;2022-09-02T00:45:18;101694.0;;;18.46;49.83
61628;BME280;55193;52.102;5.242;2022-09-02T00:48:33;101686.0;;;18.45;49.75
61628;BME280;55193;52.102;5.242;2022-09-02T00:50:15;101686.0;;;18.5;50.7
61628;BME280;55193;52.102;5.242;2022-09-02T00:51:58;101688.0;;;18.45;49.91
61628;BME280;55193;52.102;5.242;2022-09-02T00:55:20;101688.0;;;18.39;50.14
61628;BME280;55193;52.102;5.242;2022-09-02T00:57:00;101684.0;;;18.39;50.22
61628;BME280;55193;52.102;5.242;2022-09-02T00:58:38;101680.0;;;18.34;50.72
61628;BME280;55193;52.102;5.242;2022-09-02T01:00:19;101680.0;;;18.34;50.39
61628;BME280;55193;52.102;5.242;2022-09-02T01:03:33;101680.0;;;18.36;50.51
61628;BME280;55193;52.102;5.242;2022-09-02T01:05:12;101673.0;;;18.34;50.3
61628;BME280;55193;52.102;5.242;2022-09-02T01:06:51;101675.0;;;18.36;50.42
61628;BME280;55193;52.102;5.242;2022-09-02T01:08:32;101676.0;;;18.27;50.71
61628;BME280;55193;52.102;5.242;2022-09-02T01:11:54;101672.0;;;18.18;50.76
61628;BME280;55193;52.102;5.242;2022-09-02T01:13:35;101673.0;;;18.2;50.75
61628;BME280;55193;52.102;5.242;2022-09-02T01:15:14;101670.0;;;18.25;50.92
61628;BME280;55193;52.102;5.242;2022-09-02T01:16:54;101671.0;;;18.18;51.0
61628;BME280;55193;52.102;5.242;2022-09-02T01:20:14;101674.0;;;18.2;50.99
61628;BME280;55193;52.102;5.242;2022-09-02T01:21:55;101676.0;;;18.23;51.17
61628;BME280;55193;52.102;5.242;2022-09-02T01:23:33;101669.0;;;18.14;50.86
61628;BME280;55193;52.102;5.242;2022-09-02T01:25:13;101669.0;;;18.12;51.25
61628;BME280;55193;52.102;5.242;2022-09-02T01:28:33;101669.0;;;18.12;51.21
61628;BME280;55193;52.102;5.242;2022-09-02T01:30:13;101669.0;;;18.11;51.01
61628;BME280;55193;52.102;5.242;2022-09-02T01:31:51;101667.0;;;18.09;51.12
61628;BME280;55193;52.102;5.242;2022-09-02T01:33:28;101664.0;;;18.09;51.8
61628;BME280;55193;52.102;5.242;2022-09-02T01:36:43;101666.0;;;18.05;51.15
61628;BME280;55193;52.102;5.242;2022-09-02T01:38:21;101662.0;;;18.05;51.64
61628;BME280;55193;52.102;5.242;2022-09-02T01:39:59;101661.0;;;17.93;51.5
61628;BME280;55193;52.102;5.242;2022-09-02T01:43:14;101661.0;;;17.95;51.52
61628;BME280;55193;52.102;5.242;2022-09-02T01:44:53;101657.0;;;18.02;51.27
61628;BME280;55193;52.102;5.242;2022-09-02T01:46:29;101652.0;;;17.93;51.29
61628;BME280;55193;52.102;5.242;2022-09-02T01:48:06;101651.0;;;17.95;52.07
61628;BME280;55193;52.102;5.242;2022-09-02T01:51:21;101650.0;;;17.89;51.8
61628;BME280;55193;52.102;5.242;2022-09-02T01:52:57;101650.0;;;17.91;52.19
61628;BME280;55193;52.102;5.242;2022-09-02T01:54:34;101651.0;;;17.8;51.74
61628;BME280;55193;52.102;5.242;2022-09-02T01:57:48;101650.0;;;17.81;52.35
61628;BME280;55193;52.102;5.242;2022-09-02T01:59:24;101648.0;;;17.84;52.37
61628;BME280;55193;52.102;5.242;2022-09-02T02:01:02;101653.0;;;17.88;52.3
61628;BME280;55193;52.102;5.242;2022-09-02T02:04:16;101644.0;;;17.84;52.4
61628;BME280;55193;52.102;5.242;2022-09-02T02:05:52;101643.0;;;17.88;51.92
61628;BME280;55193;52.102;5.242;2022-09-02T02:07:28;101648.0;;;17.8;51.87
61628;BME280;55193;52.102;5.242;2022-09-02T02:09:04;101647.0;;;17.75;52.42
61628;BME280;55193;52.102;5.242;2022-09-02T02:12:19;101646.0;;;17.7;52.84
61628;BME280;55193;52.102;5.242;2022-09-02T02:13:56;101642.0;;;17.61;52.41
61628;BME280;55193;52.102;5.242;2022-09-02T02:15:32;101645.0;;;17.63;52.51
61628;BME280;55193;52.102;5.242;2022-09-02T02:18:48;101645.0;;;17.59;52.85
61628;BME280;55193;52.102;5.242;2022-09-02T02:20:26;101641.0;;;17.62;52.92
61628;BME280;55193;52.102;5.242;2022-09-02T02:22:02;101641.0;;;17.55;52.9
61628;BME280;55193;52.102;5.242;2022-09-02T02:23:39;101644.0;;;17.54;52.78
61628;BME280;55193;52.102;5.242;2022-09-02T02:26:53;101645.0;;;17.61;53.2
61628;BME280;55193;52.102;5.242;2022-09-02T02:28:30;101646.0;;;17.59;52.67
61628;BME280;55193;52.102;5.242;2022-09-02T02:30:08;101641.0;;;17.52;52.96
61628;BME280;55193;52.102;5.242;2022-09-02T02:33:22;101641.0;;;17.46;53.25
61628;BME280;55193;52.102;5.242;2022-09-02T02:34:59;101638.0;;;17.48;54.49
61628;BME280;55193;52.102;5.242;2022-09-02T02:36:36;101639.0;;;17.45;53.6
61628;BME280;55193;52.102;5.242;2022-09-02T02:39:49;101635.0;;;17.45;53.53
61628;BME280;55193;52.102;5.242;2022-09-02T02:41:25;101635.0;;;17.52;54.68
61628;BME280;55193;52.102;5.242;2022-09-02T02:43:01;101633.0;;;17.54;53.21
61628;BME280;55193;52.102;5.242;2022-09-02T02:44:39;101632.0;;;17.48;53.21
61628;BME280;55193;52.102;5.242;2022-09-02T02:47:55;101635.0;;;17.47;53.74
61628;BME280;55193;52.102;5.242;2022-09-02T02:49:35;101630.0;;;17.45;53.59
61628;BME280;55193;52.102;5.242;2022-09-02T02:51:12;101628.0;;;17.52;53.28
61628;BME280;55193;52.102;5.242;2022-09-02T02:54:27;101630.0;;;17.43;53.44
61628;BME280;55193;52.102;5.242;2022-09-02T02:56:05;101627.0;;;17.37;53.66
61628;BME280;55193;52.102;5.242;2022-09-02T02:57:43;101626.0;;;17.43;53.87
61628;BME280;55193;52.102;5.242;2022-09-02T02:59:21;101630.0;;;17.41;53.58
61628;BME280;55193;52.102;5.242;2022-09-02T03:02:36;101624.0;;;17.3;53.97
61628;BME280;55193;52.102;5.242;2022-09-02T03:04:12;101623.0;;;17.41;53.63
61628;BME280;55193;52.102;5.242;2022-09-02T03:05:49;101617.0;;;17.34;53.65
61628;BME280;55193;52.102;5.242;2022-09-02T03:09:02;101617.0;;;17.27;54.59
61628;BME280;55193;52.102;5.242;2022-09-02T03:10:41;101616.0;;;17.18;54.32
61628;BME280;55193;52.102;5.242;2022-09-02T03:12:18;101617.0;;;17.18;54.2
61628;BME280;55193;52.102;5.242;2022-09-02T03:13:54;101618.0;;;17.2;54.25
61628;BME280;55193;52.102;5.242;2022-09-02T03:17:08;101617.0;;;17.2;54.31
61628;BME280;55193;52.102;5.242;2022-09-02T03:18:45;101618.0;;;17.11;54.25
61628;BME280;55193;52.102;5.242;2022-09-02T03:20:22;101615.0;;;17.09;54.35
61628;BME280;55193;52.102;5.242;2022-09-02T03:23:35;101613.0;;;17.07;54.74
61628;BME280;55193;52.102;5.242;2022-09-02T03:25:13;101612.0;;;17.09;54.78
61628;BME280;55193;52.102;5.242;2022-09-02T03:26:50;101612.0;;;17.11;54.55
61628;BME280;55193;52.102;5.242;2022-09-02T03:30:05;101610.0;;;17.11;54.55
61628;BME280;55193;52.102;5.242;2022-09-02T03:31:42;101613.0;;;17.06;54.77
61628;BME280;55193;52.102;5.242;2022-09-02T03:33:19;101616.0;;;17.05;54.83
61628;BME280;55193;52.102;5.242;2022-09-02T03:34:55;101615.0;;;17.02;54.72
61628;BME280;55193;52.102;5.242;2022-09-02T03:38:12;101612.0;;;17.03;54.85
61628;BME280;55193;52.102;5.242;2022-09-02T03:39:48;101608.0;;;17.03;54.93
61628;BME280;55193;52.102;5.242;2022-09-02T03:41:24;101610.0;;;17.09;54.97
61628;BME280;55193;52.102;5.242;2022-09-02T03:44:39;101607.0;;;17.09;54.66
61628;BME280;55193;52.102;5.242;2022-09-02T03:46:16;101605.0;;;17.18;54.79
61628;BME280;55193;52.102;5.242;2022-09-02T03:47:53;101603.0;;;17.12;54.57
61628;BME280;55193;52.102;5.242;2022-09-02T03:49:30;101600.0;;;17.09;54.35
61628;BME280;55193;52.102;5.242;2022-09-02T03:52:45;101605.0;;;17.12;54.8
61628;BME280;55193;52.102;5.242;2022-09-02T03:54:21;101599.0;;;17.09;54.49
61628;BME280;55193;52.102;5.242;2022-09-02T03:56:02;101593.0;;;17.11;54.84
61628;BME280;55193;52.102;5.242;2022-09-02T03:59:17;101596.0;;;17.11;54.98
61628;BME280;55193;52.102;5.242;2022-09-02T04:00:54;101591.0;;;17.11;54.77
61628;BME280;55193;52.102;5.242;2022-09-02T04:02:31;101591.0;;;17.04;54.69
61628;BME280;55193;52.102;5.242;2022-09-02T04:04:07;101585.0;;;16.96;54.94
61628;BME280;55193;52.102;5.242;2022-09-02T04:07:21;101583.0;;;17.0;54.9
61628;BME280;55193;52.102;5.242;2022-09-02T04:08:57;101586.0;;;16.98;54.89
61628;BME280;55193;52.102;5.242;2022-09-02T04:10:35;101580.0;;;17.0;55.26
61628;BME280;55193;52.102;5.242;2022-09-02T04:13:50;101576.0;;;17.02;54.99
61628;BME280;55193;52.102;5.242;2022-09-02T04:15:27;101580.0;;;17.0;55.09
61628;BME280;55193;52.102;5.242;2022-09-02T04:17:03;101580.0;;;16.95;54.78
61628;BME280;55193;52.102;5.242;2022-09-02T04:20:17;101577.0;;;16.93;55.12
61628;BME280;55193;52.102;5.242;2022-09-02T04:21:52;101574.0;;;16.93;55.2
61628;BME280;55193;52.102;5.242;2022-09-02T04:23:29;101578.0;;;17.02;55.02
61628;BME280;55193;52.102;5.242;2022-09-02T04:25:07;101573.0;;;16.86;55.38
61628;BME280;55193;52.102;5.242;2022-09-02T04:28:21;101571.0;;;16.88;55.46
61628;BME280;55193;52.102;5.242;2022-09-02T04:29:58;101575.0;;;16.88;55.42
61628;BME280;55193;52.102;5.242;2022-09-02T04:31:34;101574.0;;;16.82;55.37
61628;BME280;55193;52.102;5.242;2022-09-02T04:34:48;101572.0;;;16.9;55.93
61628;BME280;55193;52.102;5.242;2022-09-02T04:36:25;101573.0;;;16.87;55.45
61628;BME280;55193;52.102;5.242;2022-09-02T04:38:03;101580.0;;;16.86;55.91
61628;BME280;55193;52.102;5.242;2022-09-02T04:39:39;101576.0;;;16.86;55.58
61628;BME280;55193;52.102;5.242;2022-09-02T04:42:58;101570.0;;;16.86;55.25
61628;BME280;55193;52.102;5.242;2022-09-02T04:44:35;101575.0;;;16.86;55.84
61628;BME280;55193;52.102;5.242;2022-09-02T04:46:12;101573.0;;;16.8;55.73
61628;BME280;55193;52.102;5.242;2022-09-02T04:49:30;101580.0;;;16.75;55.95
61628;BME280;55193;52.102;5.242;2022-09-02T04:51:10;101573.0;;;16.82;55.94
61628;BME280;55193;52.102;5.242;2022-09-02T04:52:50;101577.0;;;16.75;56.0
61628;BME280;55193;52.102;5.242;2022-09-02T04:54:27;101572.0;;;16.7;55.81
61628;BME280;55193;52.102;5.242;2022-09-02T04:57:41;101574.0;;;16.7;56.37
61628;BME280;55193;52.102;5.242;2022-09-02T04:59:20;101572.0;;;16.86;56.15
61628;BME280;55193;52.102;5.242;2022-09-02T05:00:56;101569.0;;;16.84;55.98
61628;BME280;55193;52.102;5.242;2022-09-02T05:04:10;101568.0;;;16.78;56.18
61628;BME280;55193;52.102;5.242;2022-09-02T05:05:47;101574.0;;;16.71;55.79
61628;BME280;55193;52.102;5.242;2022-09-02T05:07:34;101572.0;;;16.75;55.74
61628;BME280;55193;52.102;5.242;2022-09-02T05:09:11;101569.0;;;16.7;55.77
61628;BME280;55193;52.102;5.242;2022-09-02T05:12:27;101571.0;;;16.7;55.62
61628;BME280;55193;52.102;5.242;2022-09-02T05:14:04;101573.0;;;16.75;55.95
61628;BME280;55193;52.102;5.242;2022-09-02T05:15:43;101573.0;;;16.7;56.02
61628;BME280;55193;52.102;5.242;2022-09-02T05:17:21;101571.0;;;16.68;55.9
61628;BME280;55193;52.102;5.242;2022-09-02T05:20:37;101570.0;;;16.75;56.09
61628;BME280;55193;52.102;5.242;2022-09-02T05:22:13;101566.0;;;16.78;55.67
61628;BME280;55193;52.102;5.242;2022-09-02T05:23:51;101567.0;;;16.81;55.94
61628;BME280;55193;52.102;5.242;2022-09-02T05:27:04;101563.0;;;16.86;55.39
61628;BME280;55193;52.102;5.242;2022-09-02T05:28:40;101564.0;;;16.89;55.41
61628;BME280;55193;52.102;5.242;2022-09-02T05:30:17;101569.0;;;17.0;55.35
61628;BME280;55193;52.102;5.242;2022-09-02T05:33:31;101568.0;;;17.07;55.27
61628;BME280;55193;52.102;5.242;2022-09-02T05:35:08;101564.0;;;17.16;55.38
61628;BME280;55193;52.102;5.242;2022-09-02T05:36:44;101566.0;;;17.25;54.92
61628;BME280;55193;52.102;5.242;2022-09-02T05:38:21;101566.0;;;17.16;55.39
61628;BME280;55193;52.102;5.242;2022-09-02T05:41:34;101563.0;;;17.28;54.93
61628;BME280;55193;52.102;5.242;2022-09-02T05:43:10;101565.0;;;17.16;54.87
61628;BME280;55193;52.102;5.242;2022-09-02T05:44:47;101559.0;;;17.22;54.62
61628;BME280;55193;52.102;5.242;2022-09-02T05:49:05;101562.0;;;17.34;54.63
61628;BME280;55193;52.102;5.242;2022-09-02T05:50:41;101566.0;;;17.34;54.4
61628;BME280;55193;52.102;5.242;2022-09-02T05:52:17;101563.0;;;17.34;54.45
61628;BME280;55193;52.102;5.242;2022-09-02T05:53:55;101558.0;;;17.34;54.98
61628;BME280;55193;52.102;5.242;2022-09-02T05:55:31;101562.0;;;17.43;54.67
61628;BME280;55193;52.102;5.242;2022-09-02T05:57:10;101567.0;;;17.59;54.38
61628;BME280;55193;52.102;5.242;2022-09-02T06:00:26;101562.0;;;17.61;53.73
61628;BME280;55193;52.102;5.242;2022-09-02T06:02:02;101561.0;;;17.66;54.07
61628;BME280;55193;52.102;5.242;2022-09-02T06:03:39;101565.0;;;17.72;54.52
61628;BME280;55193;52.102;5.242;2022-09-02T06:06:54;101565.0;;;17.75;53.73
61628;BME280;55193;52.102;5.242;2022-09-02T06:08:32;101564.0;;;17.75;53.63
61628;BME280;55193;52.102;5.242;2022-09-02T06:10:09;101563.0;;;17.73;53.27
61628;BME280;55193;52.102;5.242;2022-09-02T06:11:49;101563.0;;;17.73;53.67
61628;BME280;55193;52.102;5.242;2022-09-02T06:15:05;101560.0;;;17.81;53.39
61628;BME280;55193;52.102;5.242;2022-09-02T06:16:41;101561.0;;;17.84;53.58
61628;BME280;55193;52.102;5.242;2022-09-02T06:18:19;101560.0;;;17.93;53.65
61628;BME280;55193;52.102;5.242;2022-09-02T06:21:32;101558.0;;;18.06;53.25
61628;BME280;55193;52.102;5.242;2022-09-02T06:23:11;101562.0;;;18.05;53.58
61628;BME280;55193;52.102;5.242;2022-09-02T06:24:48;101561.0;;;18.07;53.19
61628;BME280;55193;52.102;5.242;2022-09-02T06:26:25;101563.0;;;18.05;53.23
61628;BME280;55193;52.102;5.242;2022-09-02T06:29:39;101555.0;;;18.07;53.22
61628;BME280;55193;52.102;5.242;2022-09-02T06:31:18;101557.0;;;18.12;53.26
61628;BME280;55193;52.102;5.242;2022-09-02T06:32:59;101556.0;;;18.21;52.97
61628;BME280;55193;52.102;5.242;2022-09-02T06:36:13;101555.0;;;18.3;52.45
61628;BME280;55193;52.102;5.242;2022-09-02T06:37:51;101557.0;;;18.39;52.96
61628;BME280;55193;52.102;5.242;2022-09-02T06:39:27;101550.0;;;18.3;53.08
61628;BME280;55193;52.102;5.242;2022-09-02T06:41:05;101557.0;;;18.41;52.75
61628;BME280;55193;52.102;5.242;2022-09-02T06:44:19;101561.0;;;18.45;52.58
61628;BME280;55193;52.102;5.242;2022-09-02T06:45:54;101555.0;;;18.5;53.3
61628;BME280;55193;52.102;5.242;2022-09-02T06:47:31;101552.0;;;18.54;52.47
61628;BME280;55193;52.102;5.242;2022-09-02T06:50:45;101558.0;;;18.59;52.97
61628;BME280;55193;52.102;5.242;2022-09-02T06:52:21;101557.0;;;18.75;52.38
61628;BME280;55193;52.102;5.242;2022-09-02T06:53:58;101557.0;;;18.82;52.27
61628;BME280;55193;52.102;5.242;2022-09-02T06:57:12;101551.0;;;18.93;51.82
61628;BME280;55193;52.102;5.242;2022-09-02T06:58:48;101553.0;;;19.02;51.85
61628;BME280;55193;52.102;5.242;2022-09-02T07:00:24;101555.0;;;19.07;51.8
61628;BME280;55193;52.102;5.242;2022-09-02T07:02:00;101551.0;;;18.98;51.67
61628;BME280;55193;52.102;5.242;2022-09-02T07:06:33;101548.0;;;19.2;51.77
61628;BME280;55193;52.102;5.242;2022-09-02T07:08:14;101551.0;;;19.2;52.21
61628;BME280;55193;52.102;5.242;2022-09-02T07:11:27;101540.0;;;19.37;51.57
61628;BME280;55193;52.102;5.242;2022-09-02T07:13:03;101546.0;;;19.45;51.94
61628;BME280;55193;52.102;5.242;2022-09-02T07:14:42;101550.0;;;19.41;51.45
61628;BME280;55193;52.102;5.242;2022-09-02T07:17:54;101541.0;;;19.34;51.87
61628;BME280;55193;52.102;5.242;2022-09-02T07:19:31;101537.0;;;19.47;52.13
61628;BME280;55193;52.102;5.242;2022-09-02T07:21:07;101539.0;;;19.52;51.68
61628;BME280;55193;52.102;5.242;2022-09-02T07:24:20;101538.0;;;19.59;52.23
61628;BME280;55193;52.102;5.242;2022-09-02T07:25:57;101535.0;;;19.5;52.04
61628;BME280;55193;52.102;5.242;2022-09-02T07:27:34;101534.0;;;19.55;52.2
61628;BME280;55193;52.102;5.242;2022-09-02T07:29:12;101533.0;;;19.55;52.68
61628;BME280;55193;52.102;5.242;2022-09-02T07:32:24;101533.0;;;19.61;52.58
61628;BME280;55193;52.102;5.242;2022-09-02T07:34:01;101531.0;;;19.48;51.96
61628;BME280;55193;52.102;5.242;2022-09-02T07:35:37;101533.0;;;19.54;52.93
61628;BME280;55193;52.102;5.242;2022-09-02T07:38:50;101534.0;;;19.54;52.18
61628;BME280;55193;52.102;5.242;2022-09-02T07:40:27;101530.0;;;19.56;52.26
61628;BME280;55193;52.102;5.242;2022-09-02T07:42:04;101533.0;;;19.61;52.87
61628;BME280;55193;52.102;5.242;2022-09-02T07:45:17;101530.0;;;19.66;52.08
61628;BME280;55193;52.102;5.242;2022-09-02T07:46:55;101532.0;;;19.68;52.37
61628;BME280;55193;52.102;5.242;2022-09-02T07:48:32;101533.0;;;19.73;52.91
61628;BME280;55193;52.102;5.242;2022-09-02T07:50:10;101530.0;;;19.84;53.18
61628;BME280;55193;52.102;5.242;2022-09-02T07:53:27;101527.0;;;19.96;51.97
61628;BME280;55193;52.102;5.242;2022-09-02T07:55:04;101532.0;;;20.07;51.76
61628;BME280;55193;52.102;5.242;2022-09-02T07:56:41;101523.0;;;20.11;51.35
61628;BME280;55193;52.102;5.242;2022-09-02T07:59:57;101524.0;;;20.34;51.03
61628;BME280;55193;52.102;5.242;2022-09-02T08:01:34;101518.0;;;20.37;50.73
61628;BME280;55193;52.102;5.242;2022-09-02T08:03:12;101519.0;;;20.43;50.51
61628;BME280;55193;52.102;5.242;2022-09-02T08:04:49;101517.0;;;20.45;50.88
61628;BME280;55193;52.102;5.242;2022-09-02T08:08:06;101517.0;;;20.51;50.61
61628;BME280;55193;52.102;5.242;2022-09-02T08:09:42;101518.0;;;20.62;50.47
61628;BME280;55193;52.102;5.242;2022-09-02T08:11:19;101522.0;;;20.82;50.0
61628;BME280;55193;52.102;5.242;2022-09-02T08:14:32;101515.0;;;20.88;50.58
61628;BME280;55193;52.102;5.242;2022-09-02T08:16:08;101523.0;;;20.91;50.61
61628;BME280;55193;52.102;5.242;2022-09-02T08:17:44;101527.0;;;20.94;49.98
61628;BME280;55193;52.102;5.242;2022-09-02T08:19:22;101519.0;;;20.95;49.75
61628;BME280;55193;52.102;5.242;2022-09-02T08:22:35;101523.0;;;21.1;49.64
61628;BME280;55193;52.102;5.242;2022-09-02T08:24:12;101519.0;;;21.24;49.93
61628;BME280;55193;52.102;5.242;2022-09-02T08:25:48;101522.0;;;21.24;48.65
61628;BME280;55193;52.102;5.242;2022-09-02T08:29:03;101518.0;;;21.32;48.81
61628;BME280;55193;52.102;5.242;2022-09-02T08:30:40;101520.0;;;21.47;48.69
61628;BME280;55193;52.102;5.242;2022-09-02T08:32:16;101519.0;;;21.51;48.36
61628;BME280;55193;52.102;5.242;2022-09-02T08:35:29;101513.0;;;21.71;49.04
61628;BME280;55193;52.102;5.242;2022-09-02T08:37:06;101511.0;;;21.77;48.34
61628;BME280;55193;52.102;5.242;2022-09-02T08:38:43;101514.0;;;21.72;48.39
61628;BME280;55193;52.102;5.242;2022-09-02T08:40:21;101512.0;;;21.77;48.41
61628;BME280;55193;52.102;5.242;2022-09-02T08:43:44;101510.0;;;21.86;48.59
61628;BME280;55193;52.102;5.242;2022-09-02T08:45:23;101513.0;;;21.96;48.22
61628;BME280;55193;52.102;5.242;2022-09-02T08:47:05;101509.0;;;22.05;48.26
61628;BME280;55193;52.102;5.242;2022-09-02T08:48:48;101510.0;;;22.07;47.85
61628;BME280;55193;52.102;5.242;2022-09-02T08:52:05;101508.0;;;22.0;47.76
61628;BME280;55193;52.102;5.242;2022-09-02T08:53:45;101508.0;;;22.04;48.03
61628;BME280;55193;52.102;5.242;2022-09-02T08:55:29;101501.0;;;22.07;47.72
61628;BME280;55193;52.102;5.242;2022-09-02T08:57:10;101505.0;;;22.14;47.65
61628;BME280;55193;52.102;5.242;2022-09-02T09:00:27;101506.0;;;22.22;47.83
61628;BME280;55193;52.102;5.242;2022-09-02T09:02:15;101495.0;;;22.24;47.9
61628;BME280;55193;52.102;5.242;2022-09-02T09:04:15;101497.0;;;22.41;47.79
61628;BME280;55193;52.102;5.242;2022-09-02T09:05:58;101498.0;;;22.48;47.33
61628;BME280;55193;52.102;5.242;2022-09-02T09:07:46;101496.0;;;22.53;47.9
61628;BME280;55193;52.102;5.242;2022-09-02T09:09:40;101497.0;;;22.68;47.87
61628;BME280;55193;52.102;5.242;2022-09-02T09:13:20;101501.0;;;22.74;47.37
61628;BME280;55193;52.102;5.242;2022-09-02T09:15:19;101496.0;;;22.85;47.38
61628;BME280;55193;52.102;5.242;2022-09-02T09:16:57;101496.0;;;22.88;48.36
61628;BME280;55193;52.102;5.242;2022-09-02T09:18:37;101492.0;;;22.98;47.94
61628;BME280;55193;52.102;5.242;2022-09-02T09:20:16;101494.0;;;23.05;46.82
61628;BME280;55193;52.102;5.242;2022-09-02T09:23:35;101490.0;;;23.21;46.89
61628;BME280;55193;52.102;5.242;2022-09-02T09:25:16;101492.0;;;23.3;47.06
61628;BME280;55193;52.102;5.242;2022-09-02T09:26:53;101490.0;;;23.32;46.11
61628;BME280;55193;52.102;5.242;2022-09-02T09:28:30;101490.0;;;23.37;45.87
61628;BME280;55193;52.102;5.242;2022-09-02T09:31:52;101486.0;;;23.3;45.77
61628;BME280;55193;52.102;5.242;2022-09-02T09:33:34;101485.0;;;23.4;46.23
61628;BME280;55193;52.102;5.242;2022-09-02T09:35:12;101482.0;;;23.46;46.08
61628;BME280;55193;52.102;5.242;2022-09-02T09:36:52;101478.0;;;23.57;46.39
61628;BME280;55193;52.102;5.242;2022-09-02T09:40:28;101485.0;;;23.78;46.4
61628;BME280;55193;52.102;5.242;2022-09-02T09:42:11;101487.0;;;23.9;45.62
61628;BME280;55193;52.102;5.242;2022-09-02T09:43:49;101485.0;;;24.04;45.62
61628;BME280;55193;52.102;5.242;2022-09-02T09:45:28;101486.0;;;24.04;44.7
61628;BME280;55193;52.102;5.242;2022-09-02T09:48:49;101483.0;;;23.89;44.76
61628;BME280;55193;52.102;5.242;2022-09-02T09:50:25;101484.0;;;23.92;44.76
61628;BME280;55193;52.102;5.242;2022-09-02T09:52:02;101478.0;;;24.11;45.03
61628;BME280;55193;52.102;5.242;2022-09-02T09:53:39;101476.0;;;24.18;45.01
61628;BME280;55193;52.102;5.242;2022-09-02T09:56:55;101476.0;;;24.27;45.12
61628;BME280;55193;52.102;5.242;2022-09-02T09:58:48;101476.0;;;24.4;44.9
61628;BME280;55193;52.102;5.242;2022-09-02T10:00:28;101474.0;;;24.4;44.99
61628;BME280;55193;52.102;5.242;2022-09-02T10:02:17;101472.0;;;24.44;44.15
61628;BME280;55193;52.102;5.242;2022-09-02T10:03:56;101470.0;;;24.5;44.21
61628;BME280;55193;52.102;5.242;2022-09-02T10:07:33;101465.0;;;24.62;44.46
61628;BME280;55193;52.102;5.242;2022-09-02T10:09:31;101467.0;;;24.71;43.71
61628;BME280;55193;52.102;5.242;2022-09-02T10:11:19;101462.0;;;24.73;44.02
61628;BME280;55193;52.102;5.242;2022-09-02T10:12:59;101463.0;;;24.59;44.13
61628;BME280;55193;52.102;5.242;2022-09-02T10:14:52;101465.0;;;24.36;43.79
61628;BME280;55193;52.102;5.242;2022-09-02T10:16:39;101466.0;;;24.33;43.86
61628;BME280;55193;52.102;5.242;2022-09-02T10:20:13;101468.0;;;24.6;44.35
61628;BME280;55193;52.102;5.242;2022-09-02T10:22:08;101468.0;;;24.69;44.06
61628;BME280;55193;52.102;5.242;2022-09-02T10:24:24;101473.0;;;24.82;43.55
61628;BME280;55193;52.102;5.242;2022-09-02T10:26:23;101461.0;;;24.84;43.4
61628;BME280;55193;52.102;5.242;2022-09-02T10:28:12;101464.0;;;24.82;43.86
61628;BME280;55193;52.102;5.242;2022-09-02T10:30:02;101459.0;;;24.95;44.37
61628;BME280;55193;52.102;5.242;2022-09-02T10:32:02;101458.0;;;24.85;43.58
61628;BME280;55193;52.102;5.242;2022-09-02T10:33:58;101459.0;;;25.02;44.01
61628;BME280;55193;52.102;5.242;2022-09-02T10:35:45;101453.0;;;25.22;43.55
61628;BME280;55193;52.102;5.242;2022-09-02T10:37:24;101453.0;;;25.18;43.44
61628;BME280;55193;52.102;5.242;2022-09-02T10:40:59;101446.0;;;25.25;43.21
61628;BME280;55193;52.102;5.242;2022-09-02T10:42:48;101452.0;;;25.36;43.1
61628;BME280;55193;52.102;5.242;2022-09-02T10:44:41;101443.0;;;25.36;42.54
61628;BME280;55193;52.102;5.242;2022-09-02T10:46:25;101446.0;;;25.3;42.28
61628;BME280;55193;52.102;5.242;2022-09-02T10:48:26;101448.0;;;25.11;42.52
61628;BME280;55193;52.102;5.242;2022-09-02T10:50:12;101439.0;;;25.05;43.03
61628;BME280;55193;52.102;5.242;2022-09-02T10:53:55;101440.0;;;25.08;43.24
61628;BME280;55193;52.102;5.242;2022-09-02T10:55:45;101440.0;;;25.27;44.0
61628;BME280;55193;52.102;5.242;2022-09-02T10:57:32;101430.0;;;25.22;42.95
61628;BME280;55193;52.102;5.242;2022-09-02T10:59:16;101430.0;;;25.51;43.14
61628;BME280;55193;52.102;5.242;2022-09-02T11:00:56;101430.0;;;25.75;42.5
61628;BME280;55193;52.102;5.242;2022-09-02T11:02:36;101423.0;;;25.96;42.24
61628;BME280;55193;52.102;5.242;2022-09-02T11:06:03;101428.0;;;26.19;42.32
61628;BME280;55193;52.102;5.242;2022-09-02T11:07:49;101428.0;;;26.29;41.59
61628;BME280;55193;52.102;5.242;2022-09-02T11:09:32;101425.0;;;26.51;42.02